createdAt,value
2018-02-13T00:00:56.624Z,25.16
2018-02-13T00:02:49.690Z,25.56
2018-02-13T00:03:49.658Z,25.16
2018-02-13T00:05:42.714Z,25.27
2018-02-13T00:06:42.692Z,25.16
2018-02-13T00:08:36.240Z,25.35
2018-02-13T00:09:36.220Z,25.16
2018-02-13T00:11:29.506Z,25.45
2018-02-13T00:12:29.448Z,25.45
2018-02-13T00:14:22.499Z,25.35
2018-02-13T00:15:22.486Z,25.26
2018-02-13T00:17:16.025Z,25.46
2018-02-13T00:18:16.012Z,25.35
2018-02-13T00:20:09.062Z,25.45
2018-02-13T00:21:09.040Z,25.45
2018-02-13T00:23:02.582Z,25.07
2018-02-13T00:24:02.563Z,25.45
2018-02-13T00:25:55.617Z,25.55
2018-02-13T00:26:55.585Z,25.27
2018-02-13T00:28:49.142Z,25.07
2018-02-13T00:29:49.130Z,25.08
2018-02-13T00:31:42.169Z,25.08
2018-02-13T00:32:42.151Z,25.07
2018-02-13T00:34:35.202Z,25.07
2018-02-13T00:35:35.182Z,25.08
2018-02-13T00:37:28.244Z,25.07
2018-02-13T00:38:28.229Z,25.08
2018-02-13T00:40:21.293Z,25.16
2018-02-13T00:41:21.278Z,25.08
2018-02-13T00:43:14.320Z,25.16
2018-02-13T00:44:14.302Z,25.16
2018-02-13T00:46:07.354Z,25.16
2018-02-13T00:47:07.336Z,25.07
2018-02-13T00:49:00.392Z,25.07
2018-02-13T00:50:00.366Z,25.08
2018-02-13T00:51:53.425Z,24.98
2018-02-13T00:52:53.422Z,25.16
2018-02-13T00:54:46.447Z,24.98
2018-02-13T00:55:46.428Z,24.98
2018-02-13T00:57:39.481Z,24.87
2018-02-13T00:58:39.461Z,24.87
2018-02-13T01:00:32.558Z,24.87
2018-02-13T01:01:32.498Z,24.87
2018-02-13T01:03:25.543Z,24.87
2018-02-13T01:04:25.522Z,24.97
2018-02-13T01:06:18.582Z,24.97
2018-02-13T01:07:18.555Z,24.98
2018-02-13T01:09:11.661Z,24.97
2018-02-13T01:10:11.587Z,25.07
2018-02-13T01:12:04.642Z,24.68
2018-02-13T01:13:04.612Z,24.87
2018-02-13T01:14:57.676Z,24.87
2018-02-13T01:15:57.653Z,24.87
2018-02-13T01:17:50.704Z,24.77
2018-02-13T01:18:50.679Z,24.97
2018-02-13T01:20:43.737Z,24.77
2018-02-13T01:21:43.717Z,24.87
2018-02-13T01:23:36.764Z,24.68
2018-02-13T01:24:36.760Z,24.77
2018-02-13T01:26:29.808Z,24.69
2018-02-13T01:27:29.810Z,24.87
2018-02-13T01:29:23.333Z,24.68
2018-02-13T01:30:23.310Z,24.97
2018-02-13T01:32:16.359Z,24.68
2018-02-13T01:33:16.346Z,24.77
2018-02-13T01:35:09.586Z,24.77
2018-02-13T01:36:09.564Z,24.68
2018-02-13T01:38:02.622Z,24.79
2018-02-13T01:39:02.598Z,24.77
2018-02-13T01:40:55.641Z,24.98
2018-02-13T01:41:55.621Z,24.77
2018-02-13T01:43:48.677Z,24.98
2018-02-13T01:44:48.660Z,24.79
2018-02-13T01:46:42.203Z,24.69
2018-02-13T01:47:42.183Z,24.88
2018-02-13T01:49:35.727Z,24.77
2018-02-13T01:50:35.714Z,24.79
2018-02-13T01:52:28.757Z,24.77
2018-02-13T01:53:28.736Z,24.87
2018-02-13T01:55:21.796Z,24.87
2018-02-13T01:56:21.782Z,24.87
2018-02-13T01:58:14.826Z,24.87
2018-02-13T01:59:14.819Z,24.98
2018-02-13T02:01:07.863Z,25.08
2018-02-13T02:02:07.843Z,24.97
2018-02-13T02:04:01.089Z,24.98
2018-02-13T02:05:01.066Z,24.97
2018-02-13T02:06:54.116Z,24.98
2018-02-13T02:07:54.097Z,24.88
2018-02-13T02:09:47.642Z,24.68
2018-02-13T02:10:47.627Z,24.69
2018-02-13T02:12:40.671Z,24.88
2018-02-13T02:13:40.650Z,24.97
2018-02-13T02:15:34.394Z,24.97
2018-02-13T02:16:34.373Z,24.79
2018-02-13T02:18:27.420Z,24.77
2018-02-13T02:19:27.399Z,24.69
2018-02-13T02:21:20.454Z,24.77
2018-02-13T02:22:20.435Z,24.69
2018-02-13T02:24:13.476Z,24.77
2018-02-13T02:25:13.465Z,24.77
2018-02-13T02:27:07.010Z,24.77
2018-02-13T02:28:06.991Z,24.98
2018-02-13T02:30:00.238Z,24.77
2018-02-13T02:31:00.216Z,24.68
2018-02-13T02:32:53.267Z,24.87
2018-02-13T02:33:53.247Z,24.77
2018-02-13T02:35:46.299Z,24.68
2018-02-13T02:37:59.891Z,24.88
2018-02-13T02:38:59.827Z,24.87
2018-02-13T02:40:52.889Z,24.88
2018-02-13T02:41:52.858Z,24.77
2018-02-13T02:43:46.149Z,24.49
2018-02-13T02:45:59.159Z,24.77
2018-02-13T02:46:59.139Z,24.68
2018-02-13T02:48:52.720Z,24.69
2018-02-13T02:49:52.673Z,24.58
2018-02-13T02:51:45.725Z,24.69
2018-02-13T02:52:45.726Z,24.58
2018-02-13T02:54:38.978Z,24.58
2018-02-13T02:55:38.938Z,24.58
2018-02-13T02:57:31.990Z,24.60
2018-02-13T02:58:31.969Z,24.58
2018-02-13T03:00:25.066Z,24.58
2018-02-13T03:01:24.997Z,24.68
2018-02-13T03:03:18.061Z,24.68
2018-02-13T03:04:18.047Z,24.69
2018-02-13T03:06:11.140Z,24.60
2018-02-13T03:07:11.072Z,24.58
2018-02-13T03:09:04.126Z,24.60
2018-02-13T03:10:04.108Z,24.58
2018-02-13T03:11:57.394Z,24.58
2018-02-13T03:12:57.352Z,24.58
2018-02-13T03:14:50.413Z,24.68
2018-02-13T03:15:50.400Z,24.68
2018-02-13T03:19:15.221Z,24.60
2018-02-13T03:20:15.201Z,24.97
2018-02-13T03:22:08.744Z,24.60
2018-02-13T03:23:08.730Z,24.97
2018-02-13T03:25:01.774Z,24.88
2018-02-13T03:26:01.763Z,24.40
2018-02-13T03:27:54.998Z,24.50
2018-02-13T03:28:54.973Z,24.79
2018-02-13T03:30:48.029Z,24.87
2018-02-13T03:31:48.008Z,25.08
2018-02-13T03:33:41.066Z,24.40
2018-02-13T03:34:41.039Z,24.87
2018-02-13T03:36:34.092Z,24.40
2018-02-13T03:37:34.083Z,24.79
2018-02-13T03:39:27.123Z,24.77
2018-02-13T03:40:27.101Z,24.79
2018-02-13T03:42:20.151Z,24.87
2018-02-13T03:43:20.135Z,24.87
2018-02-13T03:45:13.182Z,24.39
2018-02-13T03:46:13.163Z,24.69
2018-02-13T03:47:13.134Z,24.60
2018-02-13T03:48:13.113Z,24.30
2018-02-13T03:49:13.091Z,24.40
2018-02-13T03:50:13.070Z,24.40
2018-02-13T03:51:13.044Z,24.21
2018-02-13T03:52:13.031Z,24.40
2018-02-13T03:53:13.016Z,24.40
2018-02-13T03:54:12.980Z,24.50
2018-02-13T03:55:12.964Z,24.30
2018-02-13T03:56:12.937Z,24.40
2018-02-13T03:57:12.919Z,24.40
2018-02-13T03:58:12.892Z,24.30
2018-02-13T03:59:12.868Z,24.21
2018-02-13T04:02:44.616Z,24.21
2018-02-13T04:03:44.596Z,24.21
2018-02-13T04:05:37.652Z,24.21
2018-02-13T04:06:37.619Z,24.21
2018-02-13T04:08:30.679Z,24.40
2018-02-13T04:09:30.651Z,24.21
2018-02-13T04:11:24.201Z,24.21
2018-02-13T04:12:24.181Z,24.21
2018-02-13T04:14:17.234Z,24.39
2018-02-13T04:15:17.218Z,24.20
2018-02-13T04:17:10.269Z,24.21
2018-02-13T04:18:10.254Z,24.20
2018-02-13T04:20:03.305Z,24.58
2018-02-13T04:21:03.281Z,24.20
2018-02-13T04:22:56.350Z,24.30
2018-02-13T04:23:56.322Z,24.39
2018-02-13T04:25:49.421Z,24.20
2018-02-13T04:26:49.351Z,24.49
2018-02-13T04:28:42.905Z,24.21
2018-02-13T04:29:42.884Z,24.20
2018-02-13T04:31:35.929Z,24.21
2018-02-13T04:32:35.908Z,24.49
2018-02-13T04:34:29.450Z,24.39
2018-02-13T04:35:29.434Z,24.30
2018-02-13T04:37:22.490Z,24.21
2018-02-13T04:38:22.468Z,24.39
2018-02-13T04:40:15.516Z,24.29
2018-02-13T04:41:15.494Z,24.29
2018-02-13T04:43:08.545Z,24.39
2018-02-13T04:44:08.528Z,24.29
2018-02-13T04:46:01.583Z,24.40
2018-02-13T04:47:01.559Z,24.20
2018-02-13T04:48:54.610Z,24.20
2018-02-13T04:49:54.596Z,24.29
2018-02-13T04:51:48.145Z,24.30
2018-02-13T04:52:48.122Z,24.29
2018-02-13T04:54:41.181Z,24.49
2018-02-13T04:55:41.167Z,24.29
2018-02-13T04:57:34.216Z,24.29
2018-02-13T04:58:34.192Z,24.49
2018-02-13T05:00:27.459Z,24.49
2018-02-13T05:01:27.441Z,24.39
2018-02-13T05:03:20.997Z,24.29
2018-02-13T05:04:20.963Z,24.49
2018-02-13T05:06:14.018Z,24.50
2018-02-13T05:07:14.002Z,24.60
2018-02-13T05:09:07.066Z,24.49
2018-02-13T05:10:07.035Z,24.49
2018-02-13T05:12:00.898Z,24.49
2018-02-13T05:14:13.149Z,24.49
2018-02-13T05:15:13.117Z,24.49
2018-02-13T05:17:06.166Z,24.49
2018-02-13T05:18:06.147Z,24.49
2018-02-13T05:19:59.225Z,24.49
2018-02-13T05:20:59.179Z,24.50
2018-02-13T05:22:52.230Z,24.58
2018-02-13T05:23:52.211Z,24.58
2018-02-13T05:25:45.297Z,24.50
2018-02-13T05:26:45.251Z,24.68
2018-02-13T05:28:38.285Z,24.77
2018-02-13T05:29:38.268Z,24.50
2018-02-13T05:31:31.340Z,24.68
2018-02-13T05:32:31.300Z,24.68
2018-02-13T05:34:24.351Z,24.58
2018-02-13T05:35:24.332Z,24.58
2018-02-13T05:37:17.445Z,24.21
2018-02-13T05:38:17.371Z,24.49
2018-02-13T05:40:10.429Z,24.40
2018-02-13T05:41:10.412Z,24.39
2018-02-13T05:43:03.511Z,24.40
2018-02-13T05:44:03.444Z,24.39
2018-02-13T05:45:56.486Z,24.29
2018-02-13T05:46:56.463Z,24.39
2018-02-13T05:48:50.218Z,24.39
2018-02-13T05:49:50.188Z,24.39
2018-02-13T05:51:43.241Z,24.20
2018-02-13T05:52:43.221Z,24.29
2018-02-13T05:54:36.312Z,24.58
2018-02-13T05:55:36.254Z,24.68
2018-02-13T05:57:29.306Z,24.58
2018-02-13T05:58:29.313Z,24.58
2018-02-13T06:00:22.412Z,24.29
2018-02-13T06:01:22.336Z,24.20
2018-02-13T06:04:47.145Z,24.49
2018-02-13T06:05:47.125Z,24.49
2018-02-13T06:07:40.174Z,24.68
2018-02-13T06:08:40.154Z,24.39
2018-02-13T06:10:33.703Z,24.39
2018-02-13T06:11:33.684Z,24.29
2018-02-13T06:13:26.728Z,24.29
2018-02-13T06:14:26.703Z,24.29
2018-02-13T06:16:19.765Z,24.39
2018-02-13T06:17:19.740Z,24.39
2018-02-13T06:19:12.803Z,24.39
2018-02-13T06:20:12.775Z,24.39
2018-02-13T06:22:06.511Z,24.49
2018-02-13T06:23:06.501Z,24.20
2018-02-13T06:24:59.551Z,24.29
2018-02-13T06:25:59.535Z,24.20
2018-02-13T06:27:52.585Z,24.29
2018-02-13T06:28:52.566Z,24.39
2018-02-13T06:30:45.814Z,24.49
2018-02-13T06:31:45.793Z,24.39
2018-02-13T06:33:39.342Z,24.29
2018-02-13T06:34:39.316Z,24.20
2018-02-13T06:36:32.371Z,24.10
2018-02-13T06:37:32.344Z,24.20
2018-02-13T06:39:25.600Z,24.20
2018-02-13T06:40:25.581Z,24.39
2018-02-13T06:42:18.629Z,24.20
2018-02-13T06:43:18.630Z,24.20
2018-02-13T06:45:11.665Z,24.20
2018-02-13T06:46:11.647Z,24.20
2018-02-13T06:48:04.695Z,24.20
2018-02-13T06:49:04.665Z,24.10
2018-02-13T06:50:57.729Z,24.10
2018-02-13T06:51:57.706Z,24.10
2018-02-13T06:55:23.200Z,24.20
2018-02-13T06:56:23.215Z,24.10
2018-02-13T06:58:16.425Z,24.20
2018-02-13T06:59:16.406Z,24.10
2018-02-13T07:01:09.459Z,24.10
2018-02-13T07:02:09.434Z,24.10
2018-02-13T07:03:09.421Z,24.21
2018-02-13T07:04:09.394Z,24.29
2018-02-13T07:05:09.371Z,24.20
2018-02-13T07:06:09.350Z,24.20
2018-02-13T07:07:09.333Z,24.10
2018-02-13T07:08:09.303Z,24.20
2018-02-13T07:09:09.285Z,24.10
2018-02-13T07:10:09.253Z,24.20
2018-02-13T07:11:09.242Z,24.20
2018-02-13T07:12:09.212Z,24.11
2018-02-13T07:13:09.205Z,24.20
2018-02-13T07:14:09.174Z,24.20
2018-02-13T07:15:09.151Z,24.20
2018-02-13T07:16:09.121Z,24.20
2018-02-13T07:17:09.105Z,24.20
2018-02-13T07:18:09.084Z,24.20
2018-02-13T07:20:15.769Z,24.20
2018-02-13T07:20:15.837Z,24.01
2018-02-13T07:21:09.017Z,24.20
2018-02-13T07:22:08.995Z,24.20
2018-02-13T07:23:08.973Z,24.10
2018-02-13T07:24:08.951Z,24.01
2018-02-13T07:25:08.929Z,24.01
2018-02-13T07:26:08.908Z,24.01
2018-02-13T07:27:08.896Z,24.01
2018-02-13T07:28:08.863Z,24.01
2018-02-13T07:29:08.849Z,24.01
2018-02-13T07:30:08.819Z,24.01
2018-02-13T07:31:08.803Z,24.01
2018-02-13T07:32:08.772Z,24.01
2018-02-13T07:33:08.757Z,24.01
2018-02-13T07:34:08.728Z,24.01
2018-02-13T07:35:08.712Z,24.01
2018-02-13T07:36:08.696Z,24.10
2018-02-13T07:37:08.685Z,24.11
2018-02-13T07:38:08.642Z,23.91
2018-02-13T07:39:08.621Z,24.20
2018-02-13T07:40:08.605Z,24.10
2018-02-13T07:41:08.586Z,24.20
2018-02-13T07:42:08.554Z,24.10
2018-02-13T07:43:08.534Z,24.20
2018-02-13T07:44:08.515Z,23.91
2018-02-13T07:45:08.498Z,24.01
2018-02-13T07:46:08.468Z,24.20
2018-02-13T07:47:08.444Z,24.20
2018-02-13T07:48:08.426Z,24.20
2018-02-13T07:49:08.400Z,24.20
2018-02-13T07:50:08.378Z,24.20
2018-02-13T07:51:08.357Z,24.20
2018-02-13T07:52:08.339Z,24.20
2018-02-13T07:53:08.311Z,24.10
2018-02-13T07:54:08.290Z,24.01
2018-02-13T07:55:08.777Z,23.91
2018-02-13T07:56:08.246Z,24.02
2018-02-13T07:57:08.250Z,23.91
2018-02-13T07:58:08.195Z,23.91
2018-02-13T07:59:08.181Z,24.10
2018-02-13T08:00:08.193Z,23.91
2018-02-13T08:01:08.136Z,24.01
2018-02-13T08:02:08.113Z,24.01
2018-02-13T08:03:08.089Z,24.21
2018-02-13T08:04:08.075Z,24.21
2018-02-13T08:05:08.047Z,24.20
2018-02-13T08:06:08.025Z,23.91
2018-02-13T08:07:08.003Z,24.20
2018-02-13T08:08:07.988Z,24.20
2018-02-13T08:09:07.956Z,24.01
2018-02-13T08:10:07.936Z,23.91
2018-02-13T08:11:07.915Z,24.10
2018-02-13T08:12:07.894Z,24.01
2018-02-13T08:13:08.799Z,24.10
2018-02-13T08:14:07.848Z,24.10
2018-02-13T08:15:07.834Z,23.91
2018-02-13T08:16:07.805Z,24.11
2018-02-13T08:17:07.781Z,24.01
2018-02-13T08:18:07.756Z,23.91
2018-02-13T08:19:07.747Z,23.91
2018-02-13T08:20:07.718Z,24.30
2018-02-13T08:21:07.695Z,24.01
2018-02-13T08:22:07.678Z,24.29
2018-02-13T08:23:07.650Z,24.21
2018-02-13T08:24:07.628Z,24.29
2018-02-13T08:25:07.605Z,23.91
2018-02-13T08:26:07.584Z,24.10
2018-02-13T08:27:07.575Z,23.91
2018-02-13T08:28:07.541Z,24.10
2018-02-13T08:29:07.518Z,24.01
2018-02-13T08:30:07.495Z,23.81
2018-02-13T08:31:07.480Z,23.91
2018-02-13T08:32:07.453Z,24.10
2018-02-13T08:33:08.296Z,23.81
2018-02-13T08:34:07.407Z,23.72
2018-02-13T08:35:07.387Z,24.29
2018-02-13T08:36:07.365Z,23.91
2018-02-13T08:37:08.293Z,24.01
2018-02-13T08:38:07.334Z,23.81
2018-02-13T08:39:07.872Z,24.01
2018-02-13T08:40:07.276Z,24.01
2018-02-13T08:41:07.253Z,24.01
2018-02-13T08:42:07.225Z,23.62
2018-02-13T08:43:07.210Z,24.10
2018-02-13T08:44:07.187Z,23.91
2018-02-13T08:45:07.176Z,24.20
2018-02-13T08:46:07.142Z,24.20
2018-02-13T08:47:07.121Z,24.30
2018-02-13T08:48:07.105Z,24.01
2018-02-13T08:49:07.076Z,24.20
2018-02-13T08:50:07.356Z,24.29
2018-02-13T08:51:07.060Z,24.01
2018-02-13T08:52:07.013Z,23.91
2018-02-13T08:53:06.988Z,24.10
2018-02-13T08:54:06.984Z,24.21
2018-02-13T08:55:06.947Z,24.01
2018-02-13T08:56:06.924Z,24.01
2018-02-13T08:57:06.901Z,24.20
2018-02-13T08:58:06.909Z,24.20
2018-02-13T08:59:07.798Z,24.01
2018-02-13T09:00:06.850Z,24.01
2018-02-13T09:01:06.824Z,23.91
2018-02-13T09:02:06.784Z,24.01
2018-02-13T09:03:06.769Z,23.91
2018-02-13T09:04:06.756Z,23.91
2018-02-13T09:05:06.722Z,23.91
2018-02-13T09:06:06.700Z,24.01
2018-02-13T09:07:06.679Z,24.01
2018-02-13T09:08:06.660Z,24.01
2018-02-13T09:09:06.635Z,24.11
2018-02-13T09:10:06.621Z,24.21
2018-02-13T09:11:06.590Z,24.01
2018-02-13T09:12:06.578Z,23.91
2018-02-13T09:13:06.545Z,24.10
2018-02-13T09:14:06.525Z,24.10
2018-02-13T09:15:06.503Z,24.10
2018-02-13T09:16:06.480Z,24.21
2018-02-13T09:17:07.310Z,23.82
2018-02-13T09:18:06.436Z,23.82
2018-02-13T09:19:06.419Z,23.91
2018-02-13T09:20:06.395Z,23.82
2018-02-13T09:21:06.374Z,23.91
2018-02-13T09:22:06.345Z,24.11
2018-02-13T09:23:06.327Z,24.11
2018-02-13T09:24:06.307Z,23.81
2018-02-13T09:25:06.282Z,23.72
2018-02-13T09:26:06.258Z,23.81
2018-02-13T09:27:06.805Z,24.10
2018-02-13T09:28:06.210Z,23.72
2018-02-13T09:29:06.184Z,23.81
2018-02-13T09:30:06.807Z,23.82
2018-02-13T09:31:06.150Z,23.72
2018-02-13T09:32:06.129Z,23.92
2018-02-13T09:33:06.103Z,23.82
2018-02-13T09:34:06.088Z,23.82
2018-02-13T09:35:06.065Z,23.82
2018-02-13T09:36:06.039Z,23.92
2018-02-13T09:37:06.014Z,23.92
2018-02-13T09:38:06.000Z,24.02
2018-02-13T09:39:05.973Z,24.02
2018-02-13T09:40:05.958Z,23.82
2018-02-13T09:41:05.929Z,23.82
2018-02-13T09:42:05.905Z,23.82
2018-02-13T09:43:05.885Z,23.82
2018-02-13T09:44:05.865Z,23.82
2018-02-13T09:45:06.809Z,23.92
2018-02-13T09:46:05.818Z,23.92
2018-02-13T09:47:05.799Z,23.92
2018-02-13T09:48:05.775Z,23.82
2018-02-13T09:49:05.752Z,23.72
2018-02-13T09:50:05.725Z,23.72
2018-02-13T09:51:05.709Z,24.02
2018-02-13T09:52:05.683Z,23.72
2018-02-13T09:53:05.662Z,23.63
2018-02-13T09:54:05.648Z,23.63
2018-02-13T09:55:05.628Z,23.63
2018-02-13T09:56:05.608Z,23.63
2018-02-13T09:57:05.576Z,23.72
2018-02-13T09:58:05.557Z,23.63
2018-02-13T09:59:05.528Z,23.63
2018-02-13T10:00:05.511Z,23.72
2018-02-13T10:01:05.485Z,23.63
2018-02-13T10:02:05.482Z,23.72
2018-02-13T10:03:05.449Z,23.72
2018-02-13T10:04:05.421Z,23.72
2018-02-13T10:05:05.399Z,23.54
2018-02-13T10:06:05.377Z,23.63
2018-02-13T10:07:05.356Z,23.63
2018-02-13T10:08:05.339Z,23.72
2018-02-13T10:09:05.311Z,23.82
2018-02-13T10:10:05.290Z,23.72
2018-02-13T10:11:05.267Z,23.72
2018-02-13T10:12:05.254Z,23.72
2018-02-13T10:13:05.223Z,23.72
2018-02-13T10:14:05.845Z,23.72
2018-02-13T10:15:05.179Z,23.82
2018-02-13T10:16:05.159Z,23.72
2018-02-13T10:17:05.134Z,23.63
2018-02-13T10:18:05.112Z,23.72
2018-02-13T10:19:05.098Z,23.62
2018-02-13T10:20:05.818Z,23.72
2018-02-13T10:21:05.046Z,23.63
2018-02-13T10:22:05.028Z,23.62
2018-02-13T10:23:05.003Z,23.72
2018-02-13T10:24:04.979Z,23.72
2018-02-13T10:25:04.957Z,23.81
2018-02-13T10:26:05.901Z,23.63
2018-02-13T10:27:05.820Z,23.63
2018-02-13T10:28:04.891Z,23.72
2018-02-13T10:29:04.870Z,23.72
2018-02-13T10:30:04.856Z,23.92
2018-02-13T10:31:04.824Z,23.82
2018-02-13T10:32:04.816Z,23.82
2018-02-13T10:33:04.782Z,24.02
2018-02-13T10:34:04.757Z,23.54
2018-02-13T10:35:04.747Z,23.54
2018-02-13T10:36:04.716Z,23.44
2018-02-13T10:37:04.694Z,23.54
2018-02-13T10:38:04.672Z,23.63
2018-02-13T10:39:04.653Z,23.54
2018-02-13T10:40:04.650Z,23.44
2018-02-13T10:41:04.614Z,23.44
2018-02-13T10:42:04.589Z,23.44
2018-02-13T10:43:04.555Z,23.54
2018-02-13T10:44:04.545Z,23.54
2018-02-13T10:45:04.520Z,23.44
2018-02-13T10:46:04.494Z,24.21
2018-02-13T10:47:04.487Z,24.40
2018-02-13T10:48:04.480Z,23.92
2018-02-13T10:49:05.326Z,23.44
2018-02-13T10:50:04.424Z,23.44
2018-02-13T10:51:04.405Z,23.54
2018-02-13T10:52:04.380Z,23.54
2018-02-13T10:53:04.356Z,23.54
2018-02-13T10:54:04.335Z,23.54
2018-02-13T10:55:04.315Z,23.54
2018-02-13T10:56:04.298Z,23.44
2018-02-13T10:57:04.272Z,23.63
2018-02-13T10:58:04.250Z,24.02
2018-02-13T10:59:04.243Z,23.82
2018-02-13T11:00:04.209Z,23.92
2018-02-13T11:01:04.187Z,23.92
2018-02-13T11:02:04.166Z,23.82
2018-02-13T11:03:04.148Z,23.82
2018-02-13T11:04:04.133Z,23.92
2018-02-13T11:05:04.109Z,23.82
2018-02-13T11:06:04.082Z,23.82
2018-02-13T11:07:04.060Z,23.92
2018-02-13T11:08:04.043Z,23.82
2018-02-13T11:09:04.024Z,23.82
2018-02-13T11:10:04.001Z,23.82
2018-02-13T11:11:03.977Z,23.82
2018-02-13T11:12:03.957Z,23.92
2018-02-13T11:13:03.936Z,23.92
2018-02-13T11:14:03.928Z,23.72
2018-02-13T11:15:03.906Z,23.92
2018-02-13T11:16:03.874Z,23.92
2018-02-13T11:37:28.609Z,23.27
2018-02-13T11:38:28.591Z,23.75
2018-02-13T11:40:21.646Z,23.65
2018-02-13T11:41:21.625Z,23.46
2018-02-13T11:43:14.682Z,23.36
2018-02-13T11:44:14.663Z,23.36
2018-02-13T11:46:06.709Z,23.08
2018-02-13T11:47:06.690Z,22.98
2018-02-13T11:48:59.741Z,23.08
2018-02-13T11:49:59.727Z,23.46
2018-02-13T11:51:52.776Z,22.89
2018-02-13T11:52:52.760Z,22.70
2018-02-13T11:54:45.824Z,22.31
2018-02-13T11:55:45.796Z,22.41
2018-02-13T11:57:38.843Z,22.12
2018-02-13T11:58:38.824Z,22.22
2018-02-13T12:00:31.870Z,22.33
2018-02-13T12:01:31.853Z,22.42
2018-02-13T12:03:25.115Z,21.92
2018-02-13T12:04:25.098Z,22.03
2018-02-13T12:06:18.147Z,22.41
2018-02-13T12:07:18.130Z,22.31
2018-02-13T12:09:11.185Z,22.70
2018-02-13T12:10:11.165Z,22.70
2018-02-13T12:12:04.226Z,22.80
2018-02-13T12:13:04.206Z,22.89
2018-02-13T12:14:57.264Z,22.69
2018-02-13T12:15:57.245Z,22.78
2018-02-13T12:17:50.307Z,22.88
2018-02-13T12:18:50.293Z,22.98
2018-02-13T12:20:43.350Z,23.17
2018-02-13T12:21:43.331Z,23.08
2018-02-13T12:23:36.378Z,23.08
2018-02-13T12:24:36.360Z,23.17
2018-02-13T12:26:29.417Z,23.17
2018-02-13T12:27:29.399Z,22.98
2018-02-13T12:29:22.467Z,23.07
2018-02-13T12:30:22.437Z,23.27
2018-02-13T12:32:16.004Z,23.16
2018-02-13T12:33:15.966Z,23.16
2018-02-13T12:35:09.022Z,23.07
2018-02-13T12:36:09.006Z,23.35
2018-02-13T12:38:02.061Z,23.27
2018-02-13T12:39:02.043Z,23.46
2018-02-13T12:40:55.592Z,23.35
2018-02-13T12:41:55.574Z,23.35
2018-02-13T12:43:48.611Z,23.46
2018-02-13T12:44:48.605Z,23.45
2018-02-13T12:46:41.659Z,23.45
2018-02-13T12:47:41.640Z,23.45
2018-02-13T12:49:34.697Z,23.45
2018-02-13T12:50:34.677Z,23.45
2018-02-13T12:52:27.735Z,23.65
2018-02-13T12:53:27.719Z,23.55
2018-02-13T12:55:20.774Z,23.55
2018-02-13T12:56:20.760Z,23.74
2018-02-13T12:58:13.837Z,23.45
2018-02-13T12:59:13.796Z,23.45
2018-02-13T13:01:06.846Z,23.45
2018-02-13T13:02:06.828Z,23.35
2018-02-13T13:03:59.877Z,23.65
2018-02-13T13:04:59.858Z,23.83
2018-02-13T13:06:52.912Z,23.35
2018-02-13T13:07:52.898Z,23.55
2018-02-13T13:09:45.956Z,23.45
2018-02-13T13:10:45.929Z,23.35
2018-02-13T13:12:39.001Z,23.45
2018-02-13T13:13:38.977Z,23.65
2018-02-13T13:15:32.034Z,23.55
2018-02-13T13:16:32.020Z,23.45
2018-02-13T13:18:25.075Z,23.45
2018-02-13T13:19:25.053Z,23.55
2018-02-13T13:21:18.118Z,23.46
2018-02-13T13:22:18.100Z,23.07
2018-02-13T13:24:11.156Z,23.35
2018-02-13T13:25:11.138Z,23.07
2018-02-13T13:27:04.195Z,22.97
2018-02-13T13:28:04.177Z,23.45
2018-02-13T13:29:57.719Z,23.45
2018-02-13T13:30:57.701Z,23.45
2018-02-13T13:32:50.759Z,23.74
2018-02-13T13:33:50.734Z,23.65
2018-02-13T13:35:43.830Z,23.65
2018-02-13T13:36:43.781Z,23.55
2018-02-13T13:38:36.837Z,23.55
2018-02-13T13:39:36.832Z,23.45
2018-02-13T13:41:29.865Z,23.16
2018-02-13T13:42:29.848Z,23.25
2018-02-13T13:44:22.897Z,23.45
2018-02-13T13:45:22.901Z,23.25
2018-02-13T13:47:15.938Z,23.07
2018-02-13T13:48:15.920Z,23.35
2018-02-13T13:50:08.976Z,23.07
2018-02-13T13:51:08.950Z,23.46
2018-02-13T13:53:02.006Z,23.65
2018-02-13T13:54:01.980Z,23.55
2018-02-13T13:55:55.046Z,23.94
2018-02-13T13:56:55.075Z,23.65
2018-02-13T13:58:48.076Z,23.94
2018-02-13T13:59:48.057Z,23.46
2018-02-13T14:01:41.117Z,23.94
2018-02-13T14:02:41.097Z,23.65
2018-02-13T14:04:34.284Z,24.03
2018-02-13T14:05:34.136Z,23.93
2018-02-13T14:07:27.191Z,23.94
2018-02-13T14:08:27.458Z,23.85
2018-02-13T14:10:20.232Z,23.74
2018-02-13T14:11:20.213Z,24.04
2018-02-13T14:13:13.280Z,24.13
2018-02-13T14:16:05.308Z,24.22
2018-02-13T14:17:07.598Z,23.93
2018-02-13T14:18:57.333Z,23.65
2018-02-13T14:19:57.314Z,23.83
2018-02-13T14:21:49.359Z,23.55
2018-02-13T14:22:49.346Z,23.93
2018-02-13T14:24:41.389Z,23.74
2018-02-13T14:25:41.370Z,23.65
2018-02-13T14:27:33.411Z,23.93
2018-02-13T14:28:33.395Z,23.83
2018-02-13T14:30:25.444Z,23.65
2018-02-13T14:31:25.421Z,23.74
2018-02-13T14:33:17.466Z,23.93
2018-02-13T14:34:17.447Z,23.94
2018-02-13T14:36:09.531Z,23.55
2018-02-13T14:37:09.474Z,23.74
2018-02-13T14:39:02.528Z,23.74
2018-02-13T14:40:02.510Z,23.65
2018-02-13T14:41:55.587Z,23.83
2018-02-13T14:42:55.547Z,23.83
2018-02-13T14:44:48.810Z,23.65
2018-02-13T14:45:48.777Z,23.83
2018-02-13T14:46:48.755Z,23.83
2018-02-13T14:47:48.738Z,24.03
2018-02-13T14:48:48.723Z,23.83
2018-02-13T14:51:12.396Z,23.74
2018-02-13T14:51:12.491Z,23.74
2018-02-13T14:51:48.655Z,23.93
2018-02-13T14:52:48.637Z,23.45
2018-02-13T14:53:48.614Z,24.03
2018-02-13T14:54:48.592Z,23.83
2018-02-13T14:55:48.574Z,23.65
2018-02-13T14:56:48.551Z,24.22
2018-02-13T14:57:48.531Z,23.83
2018-02-13T14:58:48.509Z,23.74
2018-02-13T14:59:49.496Z,23.94
2018-02-13T15:00:48.465Z,23.85
2018-02-13T15:01:48.450Z,23.46
2018-02-13T15:02:48.426Z,23.56
2018-02-13T15:03:48.408Z,23.94
2018-02-13T15:04:48.386Z,23.94
2018-02-13T15:05:48.365Z,23.94
2018-02-13T15:06:48.347Z,23.75
2018-02-13T15:07:48.323Z,23.75
2018-02-13T15:08:48.301Z,24.04
2018-02-13T15:09:48.274Z,24.04
2018-02-13T15:10:48.280Z,23.85
2018-02-13T15:11:48.242Z,23.85
2018-02-13T15:12:48.239Z,24.04
2018-02-13T15:13:48.208Z,23.46
2018-02-13T15:14:48.178Z,24.04
2018-02-13T15:15:48.903Z,23.85
2018-02-13T15:16:48.137Z,23.75
2018-02-13T15:17:48.117Z,23.75
2018-02-13T15:18:48.095Z,23.65
2018-02-13T15:19:48.074Z,23.75
2018-02-13T15:20:48.055Z,23.94
2018-02-13T15:21:49.009Z,23.65
2018-02-13T15:22:48.012Z,23.94
2018-02-13T15:23:48.905Z,23.36
2018-02-13T15:24:48.015Z,23.56
2018-02-13T15:25:47.951Z,23.65
2018-02-13T15:26:47.930Z,23.46
2018-02-13T15:27:47.910Z,23.65
2018-02-13T15:28:47.891Z,24.33
2018-02-13T15:29:47.868Z,24.23
2018-02-13T15:30:47.848Z,23.94
2018-02-13T15:31:47.830Z,23.65
2018-02-13T15:32:47.808Z,23.94
2018-02-13T15:33:47.786Z,23.46
2018-02-13T15:34:48.084Z,23.46
2018-02-13T15:35:48.879Z,23.46
2018-02-13T15:36:48.167Z,23.46
2018-02-13T15:37:47.704Z,23.08
2018-02-13T15:38:47.682Z,23.28
2018-02-13T15:39:48.023Z,23.27
2018-02-13T15:40:47.641Z,23.46
2018-02-13T15:41:47.623Z,23.08
2018-02-13T15:42:47.602Z,23.94
2018-02-13T15:43:47.582Z,23.46
2018-02-13T15:44:47.561Z,23.65
2018-02-13T15:45:47.541Z,23.65
2018-02-13T15:46:47.520Z,23.75
2018-02-13T15:47:47.509Z,23.94
2018-02-13T15:48:47.481Z,23.85
2018-02-13T15:49:47.460Z,24.04
2018-02-13T15:50:47.440Z,23.85
2018-02-13T15:51:47.437Z,24.14
2018-02-13T15:52:47.394Z,23.75
2018-02-13T15:53:47.381Z,23.85
2018-02-13T15:54:47.361Z,23.65
2018-02-13T15:55:47.338Z,23.85
2018-02-13T15:56:47.318Z,23.94
2018-02-13T15:57:47.302Z,23.75
2018-02-13T15:58:47.279Z,23.85
2018-02-13T15:59:47.276Z,23.75
2018-02-13T16:00:47.240Z,23.65
2018-02-13T16:01:47.225Z,23.85
2018-02-13T16:02:47.198Z,23.94
2018-02-13T16:03:47.182Z,23.83
2018-02-13T16:04:47.149Z,23.85
2018-02-13T16:05:47.134Z,23.83
2018-02-13T16:06:47.119Z,23.93
2018-02-13T16:07:47.098Z,23.83
2018-02-13T16:08:47.076Z,23.83
2018-02-13T16:09:47.059Z,24.03
2018-02-13T16:10:47.039Z,23.65
2018-02-13T16:11:47.013Z,23.93
2018-02-13T16:12:47.014Z,23.83
2018-02-13T16:13:46.980Z,23.83
2018-02-13T16:14:46.958Z,23.93
2018-02-13T16:15:46.940Z,23.74
2018-02-13T16:16:46.923Z,23.74
2018-02-13T16:17:46.908Z,23.83
2018-02-13T16:18:46.880Z,23.93
2018-02-13T16:19:46.861Z,23.83
2018-02-13T16:20:46.839Z,23.65
2018-02-13T16:21:46.825Z,23.74
2018-02-13T16:22:46.801Z,23.74